Flight Track Log - Related Links

Times and Time Zones

All times are in EDT time to prevent confusion due to time zone crossing. See the MPE9041 flight status page for this flight to view local times or setup timezone preferences in your user account.

Time Position Orientation Groundspeed Altitude Reporting Facility
EDT Latitude Longitude Course Direction KTS MPH feet Rate Location/Type
Wed 05:15:15 PM 53.2053 -113.5667 360° North  Level FlightAware Approximate
Wed 05:15:50 PM 53.2500 -113.5667 141° Southeast 150 173 4,600  Level Edmonton Center
Wed 05:16:50 PM 53.2000 -113.5000 180° South 190 219 6,800 2,450 Climbing Edmonton Center
Wed 05:17:50 PM 53.1333 -113.5000 180° South 250 288 9,500 2,500 Climbing Edmonton Center
Wed 05:18:50 PM 53.0500 -113.5000 186° South 300 345 11,800 2,850 Climbing Edmonton Center
Wed 05:19:50 PM 52.9500 -113.5167 180° South 350 403 15,200 3,400 Climbing Edmonton Center
Wed 05:20:50 PM 52.8500 -113.5167 180° South 360 414 18,600 3,050 Climbing Edmonton Center
Wed 05:21:50 PM 52.7333 -113.5167 185° South 370 426 21,300 1,950 Climbing Edmonton Center
Wed 05:22:50 PM 52.6167 -113.5333 185° South 400 460 22,500 850 Climbing Edmonton Center
Wed 05:23:50 PM 52.5000 -113.5500 185° South 430 495 23,000 250 Climbing Edmonton Center
Wed 05:24:50 PM 52.3833 -113.5667 180° South 430 495 23,000  Level Edmonton Center
Wed 05:25:50 PM 52.2667 -113.5667 180° South 420 483 23,000 -350 Level Edmonton Center
Wed 05:26:50 PM 52.1667 -113.5667 189° South 420 483 22,300 -1,400 Descending Edmonton Center
Wed 05:27:50 PM 52.0333 -113.6000 187° South 380 437 20,200 -2,150 Descending Edmonton Center
Wed 05:28:50 PM 51.9500 -113.6167 174° South 350 403 18,000 -2,500 Descending Edmonton Center
Wed 05:29:50 PM 51.8500 -113.6000 197° South 320 368 15,200 -2,250 Descending Edmonton Center
Wed 05:30:50 PM 51.7833 -113.6333 194° South 300 345 13,500 -1,800 Descending Edmonton Center
Wed 05:31:50 PM 51.7000 -113.6667 187° South 290 334 11,600 -1,800 Descending Edmonton Center
Wed 05:32:50 PM 51.6167 -113.6833 197° South 290 334 9,900 -1,600 Descending Edmonton Center
Wed 05:33:50 PM 51.5500 -113.7167 212° Southwest 280 322 8,400 -1,500 Descending Edmonton Center
Wed 05:34:50 PM 51.4833 -113.7833 218° Southwest 270 311 6,900 -1,150 Descending Edmonton Center
Wed 05:35:50 PM 51.4167 -113.8667 220° Southwest 260 299 6,100 -650 Descending Edmonton Center
Wed 05:36:50 PM 51.3667 -113.9333 220° Southwest 260 299 5,600 -300 Descending Edmonton Center
Wed 05:37:50 PM 51.3167 -114.0000 205° Southwest 230 265 5,500 -50 Descending Edmonton Center
Wed 05:38:50 PM 51.2500 -114.0500 163° South 210 242 5,500  Level Edmonton Center
Wed 05:39:50 PM 51.2167 -114.0333 192° South 180 207 5,500 -250 Level Edmonton Center
Wed 05:40:50 PM 51.1667 -114.0500 168° South 170 196 5,000 -700 Descending Edmonton Center
Wed 05:41:50 PM 51.1167 -114.0333 168° South 140 161 4,100 -900 Descending Edmonton Center

Login

Don't have an account? Register now (free) for customized features, flight alerts, and more!